createdAt,value
2017-09-15T00:00:20.443Z,0
2017-09-15T00:01:20.028Z,0
2017-09-15T00:02:20.465Z,0
2017-09-15T00:03:20.571Z,0
2017-09-15T00:04:20.250Z,0
2017-09-15T00:05:20.895Z,0
2017-09-15T00:06:20.454Z,0
2017-09-15T00:07:20.152Z,0
2017-09-15T00:08:20.171Z,0
2017-09-15T00:09:20.673Z,0
2017-09-15T00:10:20.202Z,0
2017-09-15T00:11:20.617Z,0
2017-09-15T00:12:20.236Z,0
2017-09-15T00:13:20.900Z,0
2017-09-15T00:14:20.674Z,0
2017-09-15T00:15:20.373Z,0
2017-09-15T00:16:20.956Z,0
2017-09-15T00:17:20.327Z,0
2017-09-15T00:18:20.665Z,0
2017-09-15T00:19:20.686Z,0
2017-09-15T00:20:20.386Z,0
2017-09-15T00:21:21.118Z,0
2017-09-15T00:22:21.058Z,0
2017-09-15T00:23:20.783Z,0
2017-09-15T00:24:20.451Z,0
2017-09-15T00:25:20.802Z,0
2017-09-15T00:26:20.808Z,0
2017-09-15T00:27:20.507Z,0
2017-09-15T00:28:21.195Z,0
2017-09-15T00:29:21.391Z,0
2017-09-15T00:30:20.887Z,0
2017-09-15T00:31:20.907Z,0
2017-09-15T00:32:20.931Z,0
2017-09-15T00:33:21.260Z,0
2017-09-15T00:34:20.966Z,0
2017-09-15T00:35:21.297Z,0
2017-09-15T00:36:20.993Z,0
2017-09-15T00:37:21.220Z,0
2017-09-15T00:38:20.487Z,0
2017-09-15T00:39:21.047Z,0
2017-09-15T00:40:20.513Z,0
2017-09-15T00:41:20.760Z,0
2017-09-15T00:42:21.424Z,0
2017-09-15T00:43:20.798Z,0
2017-09-15T00:44:21.466Z,0
2017-09-15T00:45:21.480Z,0
2017-09-15T00:46:21.183Z,0
2017-09-15T00:47:21.520Z,0
2017-09-15T00:48:21.211Z,0
2017-09-15T00:49:21.231Z,0
2017-09-15T00:50:20.938Z,0
2017-09-15T00:51:21.265Z,0
2017-09-15T00:52:21.732Z,0
2017-09-15T00:53:21.721Z,0
2017-09-15T00:54:20.996Z,0
2017-09-15T00:55:21.336Z,0
2017-09-15T00:56:21.032Z,0
2017-09-15T00:57:21.410Z,0
2017-09-15T00:58:21.069Z,0
2017-09-15T00:59:21.572Z,0
2017-09-15T01:00:21.099Z,0
2017-09-15T01:01:21.773Z,0
2017-09-15T01:02:21.790Z,0
2017-09-15T01:03:21.551Z,0
2017-09-15T01:04:21.500Z,0
2017-09-15T01:05:21.535Z,0
2017-09-15T01:06:21.538Z,0
2017-09-15T01:07:21.552Z,0
2017-09-15T01:08:21.570Z,0
2017-09-15T01:09:21.608Z,0
2017-09-15T01:10:22.504Z,0
2017-09-15T01:11:21.355Z,0
2017-09-15T01:12:21.643Z,0
2017-09-15T01:13:21.987Z,0
2017-09-15T01:14:21.684Z,0
2017-09-15T01:15:21.372Z,0
2017-09-15T01:16:21.393Z,0
2017-09-15T01:17:21.410Z,0
2017-09-15T01:18:22.075Z,0
2017-09-15T01:19:21.633Z,0
2017-09-15T01:20:22.112Z,0
2017-09-15T01:21:21.947Z,0
2017-09-15T01:22:22.148Z,0
2017-09-15T01:23:21.819Z,0
2017-09-15T01:24:21.539Z,0
2017-09-15T01:25:21.233Z,0
2017-09-15T01:26:22.032Z,0
2017-09-15T01:27:21.268Z,0
2017-09-15T01:28:21.612Z,0
2017-09-15T01:29:21.633Z,0
2017-09-15T01:30:21.980Z,0
2017-09-15T01:31:21.343Z,0
2017-09-15T01:32:22.528Z,0
2017-09-15T01:33:22.018Z,0
2017-09-15T01:34:22.039Z,0
2017-09-15T01:35:22.058Z,0
2017-09-15T01:36:22.083Z,0
2017-09-15T01:37:22.096Z,0
2017-09-15T01:38:21.893Z,0
2017-09-15T01:39:22.461Z,0
2017-09-15T01:40:21.828Z,0
2017-09-15T01:41:21.848Z,0
2017-09-15T01:42:21.863Z,0
2017-09-15T01:43:22.206Z,0
2017-09-15T01:44:22.548Z,0
2017-09-15T01:45:22.243Z,0
2017-09-15T01:46:21.944Z,0
2017-09-15T01:47:21.957Z,0
2017-09-15T01:48:22.619Z,0
2017-09-15T01:49:21.993Z,0
2017-09-15T01:50:22.409Z,0
2017-09-15T01:51:22.032Z,0
2017-09-15T01:52:22.381Z,0
2017-09-15T01:53:22.707Z,0
2017-09-15T01:54:22.412Z,0
2017-09-15T01:55:22.427Z,0
2017-09-15T01:56:22.437Z,0
2017-09-15T01:57:22.656Z,0
2017-09-15T01:58:21.834Z,0
2017-09-15T01:59:22.820Z,0
2017-09-15T02:00:22.831Z,0
2017-09-15T02:01:22.209Z,0
2017-09-15T02:02:22.871Z,0
2017-09-15T02:03:21.920Z,0
2017-09-15T02:04:22.914Z,0
2017-09-15T02:05:22.950Z,0
2017-09-15T02:06:23.052Z,0
2017-09-15T02:07:21.992Z,0
2017-09-15T02:08:22.726Z,0
2017-09-15T02:09:22.353Z,0
2017-09-15T02:10:22.752Z,0
2017-09-15T02:11:22.407Z,0
2017-09-15T02:12:23.071Z,0
2017-09-15T02:13:23.080Z,0
2017-09-15T02:14:23.210Z,0
2017-09-15T02:15:22.477Z,0
2017-09-15T02:16:22.801Z,0
2017-09-15T02:17:22.829Z,0
2017-09-15T02:18:22.849Z,0
2017-09-15T02:19:22.858Z,0
2017-09-15T02:20:23.209Z,0
2017-09-15T02:21:23.218Z,0
2017-09-15T02:22:22.916Z,0
2017-09-15T02:23:22.924Z,0
2017-09-15T02:24:23.270Z,0
2017-09-15T02:25:22.641Z,0
2017-09-15T02:26:22.985Z,0
2017-09-15T02:27:22.998Z,0
2017-09-15T02:28:23.077Z,0
2017-09-15T02:29:23.069Z,0
2017-09-15T02:30:23.064Z,0
2017-09-15T02:31:23.399Z,0
2017-09-15T02:32:22.770Z,0
2017-09-15T02:33:23.199Z,0
2017-09-15T02:34:23.548Z,0
2017-09-15T02:35:23.300Z,0
2017-09-15T02:36:22.843Z,0
2017-09-15T02:37:22.859Z,0
2017-09-15T02:38:23.270Z,0
2017-09-15T02:39:23.269Z,0
2017-09-15T02:40:23.278Z,0
2017-09-15T02:41:23.256Z,0
2017-09-15T02:42:23.597Z,0
2017-09-15T02:43:23.407Z,0
2017-09-15T02:44:23.631Z,0
2017-09-15T02:45:23.649Z,0
2017-09-15T02:46:22.697Z,0
2017-09-15T02:47:23.362Z,0
2017-09-15T02:48:23.065Z,0
2017-09-15T02:49:23.809Z,0
2017-09-15T02:50:23.742Z,0
2017-09-15T02:51:23.759Z,0
2017-09-15T02:52:23.777Z,0
2017-09-15T02:53:23.805Z,0
2017-09-15T02:54:23.509Z,0
2017-09-15T02:55:23.191Z,0
2017-09-15T02:56:23.847Z,0
2017-09-15T02:57:23.544Z,0
2017-09-15T02:58:23.244Z,0
2017-09-15T02:59:23.576Z,0
2017-09-15T03:00:23.928Z,0
2017-09-15T03:01:23.616Z,0
2017-09-15T03:02:23.953Z,0
2017-09-15T03:03:23.005Z,0
2017-09-15T03:04:23.856Z,0
2017-09-15T03:05:23.439Z,0
2017-09-15T03:06:23.713Z,0
2017-09-15T03:07:24.067Z,0
2017-09-15T03:08:23.933Z,0
2017-09-15T03:09:24.086Z,0
2017-09-15T03:10:24.096Z,0
2017-09-15T03:11:24.113Z,0
2017-09-15T03:12:23.809Z,0
2017-09-15T03:13:23.507Z,0
2017-09-15T03:14:23.202Z,0
2017-09-15T03:15:23.872Z,0
2017-09-15T03:16:23.884Z,0
2017-09-15T03:17:24.052Z,0
2017-09-15T03:18:23.925Z,0
2017-09-15T03:19:24.192Z,0
2017-09-15T03:20:24.282Z,0
2017-09-15T03:21:24.099Z,0
2017-09-15T03:22:23.997Z,0
2017-09-15T03:23:24.010Z,0
2017-09-15T03:24:23.387Z,0
2017-09-15T03:25:24.503Z,0
2017-09-15T03:26:24.353Z,0
2017-09-15T03:27:23.757Z,0
2017-09-15T03:28:24.625Z,0
2017-09-15T03:29:24.168Z,0
2017-09-15T03:30:23.493Z,0
2017-09-15T03:31:23.559Z,0
2017-09-15T03:32:23.851Z,0
2017-09-15T03:33:23.742Z,0
2017-09-15T03:34:23.560Z,0
2017-09-15T03:35:24.550Z,0
2017-09-15T03:36:23.922Z,0
2017-09-15T03:37:23.939Z,0
2017-09-15T03:38:24.344Z,0
2017-09-15T03:39:24.302Z,0
2017-09-15T03:40:24.641Z,0
2017-09-15T03:41:24.371Z,0
2017-09-15T03:42:24.881Z,0
2017-09-15T03:43:24.881Z,0
2017-09-15T03:44:24.891Z,0
2017-09-15T03:45:23.761Z,0
2017-09-15T03:46:24.813Z,0
2017-09-15T03:47:24.149Z,0
2017-09-15T03:48:24.887Z,0
2017-09-15T03:49:24.479Z,0
2017-09-15T03:50:24.823Z,0
2017-09-15T03:51:24.601Z,0
2017-09-15T03:52:24.536Z,0
2017-09-15T03:53:24.230Z,0
2017-09-15T03:54:24.664Z,0
2017-09-15T03:55:24.918Z,0
2017-09-15T03:56:24.933Z,0
2017-09-15T03:57:24.629Z,0
2017-09-15T03:58:24.645Z,0
2017-09-15T03:59:24.341Z,0
2017-09-15T04:00:25.002Z,0
2017-09-15T04:01:25.110Z,0
2017-09-15T04:02:24.759Z,0
2017-09-15T04:03:24.828Z,0
2017-09-15T04:04:24.752Z,0
2017-09-15T04:05:24.767Z,0
2017-09-15T04:06:24.794Z,0
2017-09-15T04:07:24.481Z,0
2017-09-15T04:08:25.149Z,0
2017-09-15T04:09:25.285Z,0
2017-09-15T04:10:24.953Z,0
2017-09-15T04:11:24.960Z,0
2017-09-15T04:12:24.577Z,0
2017-09-15T04:13:25.243Z,0
2017-09-15T04:14:24.610Z,0
2017-09-15T04:15:24.625Z,0
2017-09-15T04:16:25.424Z,0
2017-09-15T04:17:24.987Z,0
2017-09-15T04:18:25.000Z,0
2017-09-15T04:19:24.698Z,0
2017-09-15T04:20:25.155Z,0
2017-09-15T04:21:25.162Z,0
2017-09-15T04:22:25.193Z,0
2017-09-15T04:23:24.767Z,0
2017-09-15T04:24:25.650Z,0
2017-09-15T04:25:24.807Z,0
2017-09-15T04:26:25.237Z,4
2017-09-15T04:27:25.174Z,4
2017-09-15T04:28:25.373Z,0
2017-09-15T04:29:25.480Z,0
2017-09-15T04:30:25.436Z,4
2017-09-15T04:31:25.428Z,4
2017-09-15T04:32:25.405Z,4
2017-09-15T04:33:25.399Z,4
2017-09-15T04:34:24.968Z,4
2017-09-15T04:35:24.985Z,8
2017-09-15T04:36:25.004Z,4
2017-09-15T04:37:25.022Z,8
2017-09-15T04:38:25.490Z,8
2017-09-15T04:39:25.150Z,12
2017-09-15T04:40:25.803Z,12
2017-09-15T04:41:25.811Z,12
2017-09-15T04:42:25.521Z,16
2017-09-15T04:43:25.133Z,16
2017-09-15T04:44:25.152Z,20
2017-09-15T04:45:25.176Z,24
2017-09-15T04:46:25.509Z,24
2017-09-15T04:47:25.853Z,28
2017-09-15T04:48:25.866Z,28
2017-09-15T04:49:25.250Z,32
2017-09-15T04:50:25.257Z,32
2017-09-15T04:51:25.809Z,36
2017-09-15T04:52:25.938Z,40
2017-09-15T04:53:25.952Z,40
2017-09-15T04:54:25.655Z,44
2017-09-15T04:55:25.996Z,48
2017-09-15T04:56:26.016Z,48
2017-09-15T04:57:25.733Z,52
2017-09-15T04:58:25.721Z,56
2017-09-15T04:59:25.420Z,60
2017-09-15T05:00:25.760Z,64
2017-09-15T05:01:25.808Z,68
2017-09-15T05:02:26.128Z,72
2017-09-15T05:03:25.832Z,76
2017-09-15T05:04:26.168Z,76
2017-09-15T05:05:25.523Z,80
2017-09-15T05:06:25.874Z,84
2017-09-15T05:07:25.884Z,88
2017-09-15T05:08:25.585Z,92
2017-09-15T05:09:26.251Z,96
2017-09-15T05:10:26.263Z,100
2017-09-15T05:11:25.953Z,100
2017-09-15T05:12:26.102Z,104
2017-09-15T05:13:25.991Z,108
2017-09-15T05:14:25.781Z,112
2017-09-15T05:15:26.349Z,116
2017-09-15T05:16:26.052Z,116
2017-09-15T05:17:26.218Z,120
2017-09-15T05:18:25.884Z,120
2017-09-15T05:19:25.887Z,124
2017-09-15T05:20:26.237Z,128
2017-09-15T05:21:26.253Z,128
2017-09-15T05:22:26.476Z,132
2017-09-15T05:23:25.851Z,136
2017-09-15T05:24:25.868Z,140
2017-09-15T05:25:26.208Z,140
2017-09-15T05:26:25.904Z,144
2017-09-15T05:27:26.256Z,148
2017-09-15T05:28:26.263Z,148
2017-09-15T05:29:26.282Z,156
2017-09-15T05:30:26.307Z,156
2017-09-15T05:31:26.314Z,160
2017-09-15T05:32:26.008Z,164
2017-09-15T05:33:26.033Z,168
2017-09-15T05:34:26.698Z,172
2017-09-15T05:35:26.714Z,180
2017-09-15T05:36:26.409Z,188
2017-09-15T05:37:26.754Z,232
2017-09-15T05:38:26.445Z,280
2017-09-15T05:39:26.466Z,272
2017-09-15T05:40:26.155Z,308
2017-09-15T05:41:26.531Z,332
2017-09-15T05:42:26.509Z,324
2017-09-15T05:43:26.534Z,352
2017-09-15T05:44:26.553Z,360
2017-09-15T05:45:26.566Z,372
2017-09-15T05:46:26.293Z,364
2017-09-15T05:47:26.602Z,372
2017-09-15T05:48:26.619Z,392
2017-09-15T05:49:26.638Z,404
2017-09-15T05:50:26.360Z,448
2017-09-15T05:51:26.673Z,468
2017-09-15T05:52:26.366Z,468
2017-09-15T05:53:26.718Z,408
2017-09-15T05:54:26.408Z,380
2017-09-15T05:55:26.744Z,356
2017-09-15T05:56:27.094Z,368
2017-09-15T05:57:26.792Z,376
2017-09-15T05:58:26.663Z,356
2017-09-15T05:59:26.821Z,392
2017-09-15T06:00:27.160Z,416
2017-09-15T06:01:26.856Z,416
2017-09-15T06:02:26.548Z,448
2017-09-15T06:03:26.578Z,492
2017-09-15T06:04:26.579Z,508
2017-09-15T06:05:26.598Z,504
2017-09-15T06:06:27.274Z,444
2017-09-15T06:07:26.966Z,392
2017-09-15T06:08:26.657Z,344
2017-09-15T06:09:27.005Z,292
2017-09-15T06:10:26.693Z,276
2017-09-15T06:11:27.039Z,284
2017-09-15T06:12:26.730Z,288
2017-09-15T06:13:27.069Z,300
2017-09-15T06:14:26.768Z,320
2017-09-15T06:15:26.458Z,356
2017-09-15T06:16:27.122Z,400
2017-09-15T06:17:27.143Z,408
2017-09-15T06:18:27.487Z,384
2017-09-15T06:19:27.503Z,384
2017-09-15T06:20:26.875Z,408
2017-09-15T06:21:27.218Z,428
2017-09-15T06:22:27.232Z,428
2017-09-15T06:23:26.665Z,452
2017-09-15T06:24:26.945Z,512
2017-09-15T06:25:26.969Z,524
2017-09-15T06:26:26.992Z,468
2017-09-15T06:27:26.999Z,476
2017-09-15T06:28:27.020Z,540
2017-09-15T06:29:27.373Z,572
2017-09-15T06:30:27.377Z,580
2017-09-15T06:31:27.075Z,556
2017-09-15T06:32:27.446Z,484
2017-09-15T06:33:27.429Z,456
2017-09-15T06:34:27.451Z,452
2017-09-15T06:35:27.470Z,488
2017-09-15T06:36:27.168Z,504
2017-09-15T06:37:27.180Z,500
2017-09-15T06:38:27.198Z,504
2017-09-15T06:39:27.710Z,576
2017-09-15T06:40:26.915Z,668
2017-09-15T06:41:27.577Z,680
2017-09-15T06:42:27.598Z,688
2017-09-15T06:43:27.290Z,724
2017-09-15T06:44:27.959Z,776
2017-09-15T06:45:27.978Z,760
2017-09-15T06:46:27.356Z,728
2017-09-15T06:47:28.012Z,748
2017-09-15T06:48:28.220Z,852
2017-09-15T06:49:27.727Z,812
2017-09-15T06:50:28.065Z,772
2017-09-15T06:51:28.098Z,732
2017-09-15T06:52:27.453Z,700
2017-09-15T06:53:27.813Z,620
2017-09-15T06:54:27.495Z,516
2017-09-15T06:55:28.167Z,432
2017-09-15T06:56:27.525Z,412
2017-09-15T06:57:27.544Z,448
2017-09-15T06:58:27.607Z,504
2017-09-15T06:59:27.265Z,600
2017-09-15T07:00:27.932Z,700
2017-09-15T07:01:27.947Z,636
2017-09-15T07:02:28.286Z,576
2017-09-15T07:03:28.310Z,560
2017-09-15T07:04:27.671Z,480
2017-09-15T07:05:27.697Z,460
2017-09-15T07:06:27.709Z,412
2017-09-15T07:07:28.063Z,388
2017-09-15T07:08:28.399Z,396
2017-09-15T07:09:27.771Z,424
2017-09-15T07:10:28.460Z,476
2017-09-15T07:11:28.348Z,524
2017-09-15T07:12:28.496Z,588
2017-09-15T07:13:28.163Z,624
2017-09-15T07:14:28.177Z,616
2017-09-15T07:15:28.521Z,568
2017-09-15T07:16:28.217Z,548
2017-09-15T07:17:28.232Z,516
2017-09-15T07:18:28.588Z,416
2017-09-15T07:19:28.270Z,372
2017-09-15T07:20:28.617Z,348
2017-09-15T07:21:28.310Z,368
2017-09-15T07:22:28.006Z,328
2017-09-15T07:23:28.354Z,312
2017-09-15T07:24:28.549Z,364
2017-09-15T07:25:27.739Z,412
2017-09-15T07:26:28.728Z,348
2017-09-15T07:27:28.418Z,348
2017-09-15T07:28:28.445Z,420
2017-09-15T07:29:28.132Z,492
2017-09-15T07:30:28.803Z,576
2017-09-15T07:31:29.148Z,628
2017-09-15T07:32:28.711Z,736
2017-09-15T07:33:28.206Z,776
2017-09-15T07:34:28.231Z,760
2017-09-15T07:35:28.667Z,748
2017-09-15T07:36:28.262Z,792
2017-09-15T07:37:27.956Z,832
2017-09-15T07:38:28.303Z,852
2017-09-15T07:39:28.315Z,844
2017-09-15T07:40:28.828Z,800
2017-09-15T07:41:28.359Z,740
2017-09-15T07:42:28.792Z,748
2017-09-15T07:43:28.715Z,796
2017-09-15T07:44:28.854Z,876
2017-09-15T07:45:28.424Z,972
2017-09-15T07:46:28.448Z,992
2017-09-15T07:47:28.805Z,1000
2017-09-15T07:48:29.167Z,1020
2017-09-15T07:49:28.309Z,1136
2017-09-15T07:50:29.207Z,1080
2017-09-15T07:51:28.544Z,1056
2017-09-15T07:52:29.244Z,1076
2017-09-15T07:53:28.901Z,1016
2017-09-15T07:54:28.595Z,992
2017-09-15T07:55:28.940Z,1024
2017-09-15T07:56:28.962Z,992
2017-09-15T07:57:28.649Z,1112
2017-09-15T07:58:29.007Z,1080
2017-09-15T07:59:29.200Z,1328
2017-09-15T08:00:29.524Z,1580
2017-09-15T08:01:29.204Z,1516
2017-09-15T08:02:28.862Z,1544
2017-09-15T08:03:29.094Z,1792
2017-09-15T08:04:29.121Z,1492
2017-09-15T08:05:29.455Z,1464
2017-09-15T08:06:29.237Z,1332
2017-09-15T08:07:29.486Z,1212
2017-09-15T08:08:29.183Z,1232
2017-09-15T08:09:29.200Z,1076
2017-09-15T08:10:28.909Z,1060
2017-09-15T08:11:29.038Z,1012
2017-09-15T08:12:29.314Z,1348
2017-09-15T08:13:29.802Z,1320
2017-09-15T08:14:29.646Z,1408
2017-09-15T08:15:29.358Z,1280
2017-09-15T08:16:29.335Z,1140
2017-09-15T08:17:29.028Z,1116
2017-09-15T08:18:29.374Z,1668
2017-09-15T08:19:29.074Z,2044
2017-09-15T08:20:29.098Z,2116
2017-09-15T08:21:29.429Z,1920
2017-09-15T08:22:29.496Z,1812
2017-09-15T08:23:29.171Z,2004
2017-09-15T08:24:29.486Z,2116
2017-09-15T08:25:29.827Z,1736
2017-09-15T08:26:29.849Z,1844
2017-09-15T08:27:29.217Z,2164
2017-09-15T08:28:29.882Z,1968
2017-09-15T08:29:29.909Z,1296
2017-09-15T08:30:29.275Z,752
2017-09-15T08:31:29.063Z,1168
2017-09-15T08:32:29.635Z,1600
2017-09-15T08:33:29.699Z,1380
2017-09-15T08:34:29.678Z,1176
2017-09-15T08:35:29.723Z,1660
2017-09-15T08:36:29.482Z,1608
2017-09-15T08:37:29.413Z,1268
2017-09-15T08:38:29.752Z,1196
2017-09-15T08:39:29.773Z,928
2017-09-15T08:40:29.472Z,828
2017-09-15T08:41:29.812Z,1016
2017-09-15T08:42:29.830Z,1008
2017-09-15T08:43:29.850Z,992
2017-09-15T08:44:30.194Z,1064
2017-09-15T08:45:29.889Z,1084
2017-09-15T08:46:30.036Z,1000
2017-09-15T08:47:30.257Z,912
2017-09-15T08:48:29.623Z,884
2017-09-15T08:49:29.642Z,824
2017-09-15T08:50:29.336Z,832
2017-09-15T08:51:30.006Z,872
2017-09-15T08:52:29.382Z,996
2017-09-15T08:53:30.366Z,972
2017-09-15T08:54:30.109Z,1064
2017-09-15T08:55:30.084Z,1004
2017-09-15T08:56:30.133Z,1084
2017-09-15T08:57:30.581Z,1256
2017-09-15T08:58:30.142Z,1344
2017-09-15T08:59:30.482Z,1296
2017-09-15T09:00:29.532Z,1264
2017-09-15T09:01:29.873Z,1164
2017-09-15T09:02:29.751Z,1132
2017-09-15T09:03:30.691Z,1152
2017-09-15T09:04:30.120Z,824
2017-09-15T09:05:30.274Z,868
2017-09-15T09:06:29.982Z,1412
2017-09-15T09:07:29.995Z,1396
2017-09-15T09:08:30.016Z,1584
2017-09-15T09:09:30.677Z,1832
2017-09-15T09:10:30.388Z,1488
2017-09-15T09:11:30.720Z,1472
2017-09-15T09:12:30.416Z,1476
2017-09-15T09:13:30.757Z,1496
2017-09-15T09:14:30.340Z,1644
2017-09-15T09:15:30.476Z,1628
2017-09-15T09:16:30.512Z,1624
2017-09-15T09:17:30.303Z,1724
2017-09-15T09:18:31.068Z,1740
2017-09-15T09:19:30.656Z,1656
2017-09-15T09:20:30.256Z,1684
2017-09-15T09:21:30.916Z,1700
2017-09-15T09:22:30.999Z,1664
2017-09-15T09:23:30.533Z,1576
2017-09-15T09:24:30.744Z,1236
2017-09-15T09:25:31.118Z,1144
2017-09-15T09:26:30.369Z,1112
2017-09-15T09:27:30.709Z,1028
2017-09-15T09:28:31.184Z,1244
2017-09-15T09:29:31.073Z,1140
2017-09-15T09:30:31.170Z,1032
2017-09-15T09:31:30.790Z,1428
2017-09-15T09:32:30.621Z,1376
2017-09-15T09:33:31.153Z,1348
2017-09-15T09:34:30.855Z,1292
2017-09-15T09:35:30.870Z,1180
2017-09-15T09:36:30.568Z,1116
2017-09-15T09:37:30.913Z,1540
2017-09-15T09:38:30.932Z,2008
2017-09-15T09:39:30.625Z,2008
2017-09-15T09:40:30.322Z,1908
2017-09-15T09:41:31.542Z,1764
2017-09-15T09:42:31.016Z,1712
2017-09-15T09:43:30.707Z,1688
2017-09-15T09:44:31.316Z,1684
2017-09-15T09:45:31.497Z,1704
2017-09-15T09:46:30.913Z,1720
2017-09-15T09:47:31.227Z,1800
2017-09-15T09:48:30.816Z,1796
2017-09-15T09:49:31.154Z,1800
2017-09-15T09:50:31.492Z,1780
2017-09-15T09:51:31.200Z,1800
2017-09-15T09:52:31.372Z,1848
2017-09-15T09:53:31.588Z,1892
2017-09-15T09:54:31.375Z,1928
2017-09-15T09:55:31.273Z,1996
2017-09-15T09:56:31.295Z,2088
2017-09-15T09:57:31.637Z,2168
2017-09-15T09:58:31.135Z,2208
2017-09-15T09:59:31.358Z,2240
2017-09-15T10:00:31.501Z,2304
2017-09-15T10:01:31.715Z,2316
2017-09-15T10:02:31.091Z,2308
2017-09-15T10:03:31.650Z,2356
2017-09-15T10:04:31.582Z,2348
2017-09-15T10:05:31.155Z,2316
2017-09-15T10:06:31.502Z,2336
2017-09-15T10:07:30.987Z,2376
2017-09-15T10:08:31.223Z,2404
2017-09-15T10:09:31.620Z,2456
2017-09-15T10:10:31.374Z,2492
2017-09-15T10:11:31.918Z,2488
2017-09-15T10:12:31.624Z,2544
2017-09-15T10:13:31.315Z,2536
2017-09-15T10:14:31.567Z,2516
2017-09-15T10:15:31.680Z,2440
2017-09-15T10:16:31.701Z,2380
2017-09-15T10:17:31.772Z,2364
2017-09-15T10:18:31.800Z,2200
2017-09-15T10:19:31.998Z,2252
2017-09-15T10:20:31.458Z,2208
2017-09-15T10:21:31.801Z,2168
2017-09-15T10:22:31.825Z,2200
2017-09-15T10:23:31.841Z,2144
2017-09-15T10:24:31.453Z,2136
2017-09-15T10:25:32.209Z,2108
2017-09-15T10:26:31.588Z,2088
2017-09-15T10:27:31.942Z,1980
2017-09-15T10:28:31.528Z,1792
2017-09-15T10:29:32.297Z,1760
2017-09-15T10:30:31.667Z,1860
2017-09-15T10:31:32.010Z,2008
2017-09-15T10:32:32.030Z,1952
2017-09-15T10:33:31.407Z,2036
2017-09-15T10:34:32.398Z,1972
2017-09-15T10:35:32.095Z,2096
2017-09-15T10:36:32.178Z,2052
2017-09-15T10:37:31.812Z,2028
2017-09-15T10:38:32.156Z,1896
2017-09-15T10:39:32.178Z,1812
2017-09-15T10:40:32.197Z,1660
2017-09-15T10:41:31.900Z,1636
2017-09-15T10:42:32.687Z,1644
2017-09-15T10:43:32.271Z,1632
2017-09-15T10:44:32.283Z,1612
2017-09-15T10:45:32.305Z,1632
2017-09-15T10:46:32.449Z,1644
2017-09-15T10:47:32.347Z,1600
2017-09-15T10:48:31.843Z,1500
2017-09-15T10:49:32.385Z,1504
2017-09-15T10:50:32.408Z,1532
2017-09-15T10:51:32.759Z,1324
2017-09-15T10:52:32.133Z,1260
2017-09-15T10:53:32.481Z,1648
2017-09-15T10:54:32.494Z,2012
2017-09-15T10:55:32.193Z,1916
2017-09-15T10:56:32.882Z,1888
2017-09-15T10:57:32.557Z,2288
2017-09-15T10:58:32.903Z,2436
2017-09-15T10:59:32.599Z,2628
2017-09-15T11:00:32.987Z,2412
2017-09-15T11:01:32.007Z,2352
2017-09-15T11:02:32.340Z,1956
2017-09-15T11:03:32.369Z,2020
2017-09-15T11:04:32.386Z,2804
2017-09-15T11:05:33.051Z,2720
2017-09-15T11:06:33.163Z,2772
2017-09-15T11:07:32.449Z,2604
2017-09-15T11:08:32.791Z,2408
2017-09-15T11:09:32.874Z,2196
2017-09-15T11:10:32.513Z,2152
2017-09-15T11:11:32.212Z,1740
2017-09-15T11:12:32.555Z,1452
2017-09-15T11:13:32.578Z,1160
2017-09-15T11:14:33.277Z,992
2017-09-15T11:15:32.622Z,984
2017-09-15T11:16:33.304Z,876
2017-09-15T11:17:32.664Z,800
2017-09-15T11:18:32.681Z,568
2017-09-15T11:19:32.707Z,480
2017-09-15T11:20:32.728Z,388
2017-09-15T11:21:32.749Z,392
2017-09-15T11:22:32.881Z,488
2017-09-15T11:23:33.455Z,580
2017-09-15T11:24:33.228Z,676
2017-09-15T11:25:33.480Z,656
2017-09-15T11:26:33.182Z,724
2017-09-15T11:27:32.881Z,860
2017-09-15T11:28:33.224Z,852
2017-09-15T11:29:33.249Z,808
2017-09-15T11:30:32.941Z,860
2017-09-15T11:31:33.613Z,1152
2017-09-15T11:32:32.667Z,1444
2017-09-15T11:33:33.005Z,1664
2017-09-15T11:34:33.029Z,1700
2017-09-15T11:35:33.085Z,1816
2017-09-15T11:36:33.397Z,1852
2017-09-15T11:37:33.534Z,1904
2017-09-15T11:38:33.768Z,1824
2017-09-15T11:39:33.138Z,1888
2017-09-15T11:40:33.483Z,2236
2017-09-15T11:41:33.531Z,2312
2017-09-15T11:42:33.220Z,2256
2017-09-15T11:43:33.229Z,2208
2017-09-15T11:44:33.568Z,2172
2017-09-15T11:45:33.961Z,2032
2017-09-15T11:46:33.977Z,1992
2017-09-15T11:47:33.633Z,1952
2017-09-15T11:48:34.069Z,1940
2017-09-15T11:49:33.684Z,1988
2017-09-15T11:50:33.377Z,2108
2017-09-15T11:51:33.416Z,1900
2017-09-15T11:52:34.185Z,1696
2017-09-15T11:53:33.766Z,1716
2017-09-15T11:54:33.788Z,1772
2017-09-15T11:55:34.129Z,1852
2017-09-15T11:56:33.826Z,1672
2017-09-15T11:57:34.183Z,1620
2017-09-15T11:58:33.547Z,1544
2017-09-15T11:59:33.893Z,1480
2017-09-15T12:00:33.921Z,1516
2017-09-15T12:01:33.624Z,1700
2017-09-15T12:02:33.311Z,1956
2017-09-15T12:03:33.333Z,2504
2017-09-15T12:04:33.684Z,2692
2017-09-15T12:05:34.026Z,2364
2017-09-15T12:06:33.724Z,2184
2017-09-15T12:07:33.421Z,2100
2017-09-15T12:08:34.090Z,2008
2017-09-15T12:09:34.447Z,1948
2017-09-15T12:10:34.133Z,1848
2017-09-15T12:11:34.493Z,1788
2017-09-15T12:12:34.508Z,1816
2017-09-15T12:13:33.877Z,1836
2017-09-15T12:14:33.901Z,1908
2017-09-15T12:15:34.246Z,2052
2017-09-15T12:16:34.646Z,2044
2017-09-15T12:17:34.419Z,2016
2017-09-15T12:18:34.088Z,2152
2017-09-15T12:19:34.410Z,2248
2017-09-15T12:20:33.707Z,2172
2017-09-15T12:21:34.058Z,2072
2017-09-15T12:22:34.406Z,1952
2017-09-15T12:23:33.774Z,1840
2017-09-15T12:24:34.448Z,1808
2017-09-15T12:25:34.792Z,1888
2017-09-15T12:26:34.695Z,1852
2017-09-15T12:27:34.188Z,1804
2017-09-15T12:28:34.541Z,2016
2017-09-15T12:29:34.879Z,1848
2017-09-15T12:30:33.934Z,1588
2017-09-15T12:31:34.602Z,1744
2017-09-15T12:32:34.943Z,1992
2017-09-15T12:33:34.338Z,2128
2017-09-15T12:34:34.346Z,2112
2017-09-15T12:35:34.688Z,2132
2017-09-15T12:36:34.919Z,2236
2017-09-15T12:37:35.140Z,2084
2017-09-15T12:38:34.109Z,2040
2017-09-15T12:39:34.553Z,2056
2017-09-15T12:40:34.476Z,1984
2017-09-15T12:41:34.831Z,1996
2017-09-15T12:42:34.711Z,2020
2017-09-15T12:43:34.975Z,1940
2017-09-15T12:44:35.214Z,2364
2017-09-15T12:45:35.357Z,2348
2017-09-15T12:46:35.037Z,1852
2017-09-15T12:47:34.956Z,1520
2017-09-15T12:48:34.660Z,1764
2017-09-15T12:49:34.805Z,2176
2017-09-15T12:50:35.381Z,2204
2017-09-15T12:51:34.845Z,2136
2017-09-15T12:52:35.076Z,1708
2017-09-15T12:53:34.769Z,1628
2017-09-15T12:54:35.117Z,1728
2017-09-15T12:55:35.459Z,2060
2017-09-15T12:56:35.162Z,1976
2017-09-15T12:57:34.865Z,1860
2017-09-15T12:58:34.877Z,1752
2017-09-15T12:59:35.558Z,1464
2017-09-15T13:00:35.251Z,1340
2017-09-15T13:01:35.272Z,1500
2017-09-15T13:02:35.616Z,1636
2017-09-15T13:03:35.314Z,1596
2017-09-15T13:04:35.458Z,1764
2017-09-15T13:05:35.041Z,1656
2017-09-15T13:06:35.792Z,1876
2017-09-15T13:07:35.408Z,1820
2017-09-15T13:08:35.111Z,1692
2017-09-15T13:09:35.800Z,1620
2017-09-15T13:10:35.217Z,1572
2017-09-15T13:11:35.499Z,1496
2017-09-15T13:12:35.847Z,1480
2017-09-15T13:13:35.934Z,1536
2017-09-15T13:14:35.750Z,1988
2017-09-15T13:15:35.585Z,2476
2017-09-15T13:16:35.612Z,2488
2017-09-15T13:17:35.799Z,2404
2017-09-15T13:18:35.334Z,2328
2017-09-15T13:19:35.035Z,2264
2017-09-15T13:20:35.174Z,2168
2017-09-15T13:21:35.402Z,2248
2017-09-15T13:22:35.906Z,2276
2017-09-15T13:23:35.543Z,2316
2017-09-15T13:24:35.796Z,2220
2017-09-15T13:25:36.054Z,2104
2017-09-15T13:26:35.835Z,1988
2017-09-15T13:27:36.192Z,2040
2017-09-15T13:28:36.056Z,2456
2017-09-15T13:29:35.960Z,2808
2017-09-15T13:30:35.930Z,2860
2017-09-15T13:31:35.978Z,2780
2017-09-15T13:32:36.099Z,2808
2017-09-15T13:33:36.318Z,2688
2017-09-15T13:34:36.348Z,2180
2017-09-15T13:35:36.052Z,1880
2017-09-15T13:36:36.196Z,1856
2017-09-15T13:37:36.088Z,2300
2017-09-15T13:38:36.116Z,2772
2017-09-15T13:39:36.159Z,2756
2017-09-15T13:40:36.242Z,2424
2017-09-15T13:41:36.180Z,2252
2017-09-15T13:42:35.904Z,2080
2017-09-15T13:43:36.229Z,1892
2017-09-15T13:44:36.277Z,1804
2017-09-15T13:45:36.285Z,1884
2017-09-15T13:46:35.979Z,1980
2017-09-15T13:47:36.641Z,1984
2017-09-15T13:48:36.661Z,1972
2017-09-15T13:49:35.814Z,2256
2017-09-15T13:50:36.115Z,2184
2017-09-15T13:51:36.283Z,2076
2017-09-15T13:52:36.277Z,2112
2017-09-15T13:53:36.455Z,2116
2017-09-15T13:54:36.154Z,1988